TAF KEWN
KEWN 072321Z 0800/0824 04005KT P6SM OVC030 FM080800 04004KT P6SM VCSH OVC025 FM081100 02005KT P6SM RA OVC010 FM081300 36007KT 4SM RA BR OVC007 FM082200 33007KT P6SM BKN025=
METAR KEWN
WC KEWN
WS KEWN
WV KEWN